Time;durP1;ratioP1;P1;durP2;ratioP2;P2;SDS_P1;SDS_P2;PMS_P1;PMS_P2;Temp;Humidity;BMP_temperature;BMP_pressure;BME280_temperature;BME280_humidity;BME280_pressure;Samples;Min_cycle;Max_cycle;Signal;HPM_P1;HPM_P2
2023/11/15 00:02:19;;;;;;;12.07;4.55;;;;;;;;;;5030580;28;20238;-65
2023/11/15 00:04:44;;;;;;;16.73;4.70;;;;;;;;;;5038509;28;20181;-65
2023/11/15 00:07:09;;;;;;;11.27;4.13;;;;;;;;;;5049135;28;20205;-66
2023/11/15 00:09:35;;;;;;;17.48;4.45;;;;;;;;;;5038173;28;20183;-65
2023/11/15 00:12:00;;;;;;;17.95;5.38;;;;;;;;;;5043099;28;20789;-66
2023/11/15 00:14:25;;;;;;;8.02;3.35;;;;;;;;;;5037816;28;20182;-65
2023/11/15 00:16:50;;;;;;;11.38;3.30;;;;;;;;;;5032201;28;20209;-65
2023/11/15 00:19:17;;;;;;;10.75;4.00;;;;;;;;;;5032387;28;20269;-65
2023/11/15 00:21:42;;;;;;;14.23;3.33;;;;;;;;;;5025772;28;20198;-65
2023/11/15 00:24:07;;;;;;;19.67;5.32;;;;;;;;;;5044168;28;20557;-66
2023/11/15 00:26:32;;;;;;;19.92;3.63;;;;;;;;;;5048007;28;20925;-67
2023/11/15 00:28:58;;;;;;;12.20;4.35;;;;;;;;;;5053764;28;20181;-65
2023/11/15 00:31:24;;;;;;;15.05;3.95;;;;;;;;;;5035095;28;20708;-67
2023/11/15 00:33:49;;;;;;;11.05;3.95;;;;;;;;;;5049342;28;20603;-67
2023/11/15 00:36:19;;;;;;;18.45;4.47;;;;;;;;;;5054196;28;20798;-67
2023/11/15 00:38:44;;;;;;;15.65;4.10;;;;;;;;;;5052104;28;20243;-66
2023/11/15 00:41:09;;;;;;;13.00;4.05;;;;;;;;;;5047168;28;20680;-66
2023/11/15 00:43:34;;;;;;;9.60;3.67;;;;;;;;;;5047994;28;20679;-66
2023/11/15 00:46:00;;;;;;;16.98;3.25;;;;;;;;;;5051986;28;20185;-67
2023/11/15 00:48:25;;;;;;;13.07;4.22;;;;;;;;;;5049144;28;20271;-67
2023/11/15 00:50:51;;;;;;;10.20;3.50;;;;;;;;;;5029276;28;20201;-67
2023/11/15 00:53:16;;;;;;;14.73;3.40;;;;;;;;;;5015858;28;20177;-66
2023/11/15 00:55:42;;;;;;;14.63;4.32;;;;;;;;;;5042879;28;20251;-66
2023/11/15 00:58:09;;;;;;;14.07;4.53;;;;;;;;;;5029167;28;20263;-65
2023/11/15 01:00:39;;;;;;;20.08;4.65;;;;;;;;;;5026125;28;20185;-66
2023/11/15 01:03:05;;;;;;;14.05;4.45;;;;;;;;;;5040292;28;20209;-69
2023/11/15 01:05:30;;;;;;;19.58;3.75;;;;;;;;;;5037344;28;20193;-66
2023/11/15 01:07:57;;;;;;;25.33;4.22;;;;;;;;;;5052012;28;20184;-66
2023/11/15 01:10:24;;;;;;;13.90;3.22;;;;;;;;;;5053447;28;20177;-66
2023/11/15 01:12:51;;;;;;;16.80;3.35;;;;;;;;;;5052191;28;20182;-67
2023/11/15 01:15:16;;;;;;;16.15;3.17;;;;;;;;;;5050825;28;20181;-67
2023/11/15 01:17:41;;;;;;;13.75;3.65;;;;;;;;;;5052470;28;20587;-67
2023/11/15 01:20:07;;;;;;;13.40;3.20;;;;;;;;;;5050043;28;20181;-67
2023/11/15 01:22:32;;;;;;;12.80;3.13;;;;;;;;;;5051452;28;20186;-69
2023/11/15 01:24:57;;;;;;;10.63;3.70;;;;;;;;;;5049349;28;20173;-67
2023/11/15 01:27:22;;;;;;;10.13;2.50;;;;;;;;;;5051036;28;20181;-67
2023/11/15 01:29:49;;;;;;;12.32;3.22;;;;;;;;;;5046959;28;20239;-66
2023/11/15 01:32:15;;;;;;;10.60;3.38;;;;;;;;;;5047614;28;20820;-66
2023/11/15 01:34:40;;;;;;;13.87;3.73;;;;;;;;;;5050329;28;20276;-66
2023/11/15 01:37:05;;;;;;;11.98;3.08;;;;;;;;;;5050501;28;20284;-66
2023/11/15 01:39:31;;;;;;;10.43;3.38;;;;;;;;;;5054146;28;20173;-66
2023/11/15 01:41:56;;;;;;;13.82;3.78;;;;;;;;;;5049539;28;20242;-66
2023/11/15 01:44:22;;;;;;;10.32;3.05;;;;;;;;;;5050813;28;20249;-67
2023/11/15 01:46:48;;;;;;;7.93;3.17;;;;;;;;;;5050317;28;20247;-67
2023/11/15 01:49:15;;;;;;;12.73;2.83;;;;;;;;;;5047486;28;20185;-66
2023/11/15 01:51:40;;;;;;;13.00;3.35;;;;;;;;;;5046412;28;20237;-66
2023/11/15 01:54:06;;;;;;;11.23;3.22;;;;;;;;;;5048284;28;20208;-67
2023/11/15 01:56:31;;;;;;;7.00;2.70;;;;;;;;;;5051585;28;20203;-67
2023/11/15 01:58:58;;;;;;;18.33;3.33;;;;;;;;;;5051554;28;20202;-67
2023/11/15 02:01:23;;;;;;;8.88;2.85;;;;;;;;;;5052433;28;20726;-66
2023/11/15 02:03:49;;;;;;;10.40;2.83;;;;;;;;;;5052405;28;20176;-66
2023/11/15 02:06:14;;;;;;;11.98;2.70;;;;;;;;;;5048448;28;20213;-67
2023/11/15 02:08:39;;;;;;;14.23;3.15;;;;;;;;;;5047722;28;20649;-67
2023/11/15 02:11:04;;;;;;;9.13;2.25;;;;;;;;;;5051654;28;20206;-67
2023/11/15 02:13:30;;;;;;;16.42;2.60;;;;;;;;;;5051039;28;20177;-68
2023/11/15 02:15:56;;;;;;;8.90;2.53;;;;;;;;;;5053977;28;20756;-66
2023/11/15 02:18:22;;;;;;;13.52;3.13;;;;;;;;;;5051190;28;20182;-67
2023/11/15 02:20:47;;;;;;;16.38;3.65;;;;;;;;;;5051653;28;20621;-67
2023/11/15 02:23:13;;;;;;;13.00;3.58;;;;;;;;;;5053985;28;20211;-67
2023/11/15 02:25:40;;;;;;;13.85;4.03;;;;;;;;;;5051437;28;20177;-67
2023/11/15 02:28:05;;;;;;;14.90;3.10;;;;;;;;;;5048407;28;20185;-66
2023/11/15 02:30:30;;;;;;;15.55;3.33;;;;;;;;;;5048848;28;20175;-68
2023/11/15 02:32:56;;;;;;;13.48;3.15;;;;;;;;;;5049463;28;20177;-66
2023/11/15 02:35:22;;;;;;;10.07;2.58;;;;;;;;;;5046532;28;20212;-67
2023/11/15 02:37:47;;;;;;;10.65;2.70;;;;;;;;;;5052777;28;20680;-67
2023/11/15 02:40:13;;;;;;;9.50;2.70;;;;;;;;;;5036766;28;21558;-66
2023/11/15 02:42:38;;;;;;;18.85;3.83;;;;;;;;;;5052688;28;20675;-66
2023/11/15 02:45:03;;;;;;;15.95;4.18;;;;;;;;;;5052245;28;20264;-66
2023/11/15 02:47:29;;;;;;;11.25;2.70;;;;;;;;;;5036357;28;20182;-65
2023/11/15 02:49:54;;;;;;;9.95;3.10;;;;;;;;;;5054572;28;20236;-66
2023/11/15 02:52:19;;;;;;;11.68;3.53;;;;;;;;;;5050128;28;20217;-66
2023/11/15 02:54:45;;;;;;;9.63;2.60;;;;;;;;;;5053948;28;20177;-66
2023/11/15 02:57:11;;;;;;;8.82;2.75;;;;;;;;;;5052488;28;20205;-66
2023/11/15 02:59:36;;;;;;;8.55;1.67;;;;;;;;;;5052646;28;20190;-66
2023/11/15 03:02:02;;;;;;;11.00;3.13;;;;;;;;;;5052153;28;20652;-65
2023/11/15 03:04:27;;;;;;;7.28;2.70;;;;;;;;;;5050983;28;20181;-67
2023/11/15 03:06:52;;;;;;;15.10;2.47;;;;;;;;;;5051721;28;20665;-66
2023/11/15 03:09:17;;;;;;;16.55;3.05;;;;;;;;;;5033084;28;20186;-67
2023/11/15 03:11:43;;;;;;;15.77;2.60;;;;;;;;;;5052763;28;20205;-66
2023/11/15 03:14:08;;;;;;;14.15;2.00;;;;;;;;;;5052152;28;20192;-67
2023/11/15 03:16:33;;;;;;;9.35;2.72;;;;;;;;;;5055121;28;20197;-66
2023/11/15 03:18:59;;;;;;;6.97;2.07;;;;;;;;;;5050800;28;20178;-66
2023/11/15 03:21:25;;;;;;;11.57;2.95;;;;;;;;;;5050980;28;20204;-67
2023/11/15 03:23:50;;;;;;;14.10;3.35;;;;;;;;;;5054270;28;20177;-66
2023/11/15 03:26:15;;;;;;;11.80;2.67;;;;;;;;;;5052312;28;20555;-66
2023/11/15 03:28:40;;;;;;;13.20;2.35;;;;;;;;;;5057371;28;20200;-66
2023/11/15 03:31:06;;;;;;;9.95;2.70;;;;;;;;;;5047196;28;20576;-65
2023/11/15 03:33:31;;;;;;;20.10;3.38;;;;;;;;;;5033287;28;20181;-66
2023/11/15 03:35:57;;;;;;;9.73;2.20;;;;;;;;;;5034410;28;20292;-66
2023/11/15 03:38:22;;;;;;;8.13;2.85;;;;;;;;;;5049066;28;20177;-66
2023/11/15 03:40:47;;;;;;;11.90;2.90;;;;;;;;;;5049147;28;20577;-66
2023/11/15 03:43:13;;;;;;;9.85;2.00;;;;;;;;;;5052992;28;20653;-66
2023/11/15 03:45:38;;;;;;;14.95;2.28;;;;;;;;;;5052307;28;20613;-66
2023/11/15 03:48:03;;;;;;;6.97;2.22;;;;;;;;;;5053151;28;20182;-67
2023/11/15 03:50:29;;;;;;;10.38;2.17;;;;;;;;;;5048736;28;20174;-66
2023/11/15 03:52:54;;;;;;;12.95;2.33;;;;;;;;;;5051580;28;20182;-66
2023/11/15 03:55:19;;;;;;;11.02;2.88;;;;;;;;;;5053936;28;20648;-66
2023/11/15 03:57:46;;;;;;;6.15;2.05;;;;;;;;;;5054064;28;20224;-66
2023/11/15 04:00:12;;;;;;;8.68;2.60;;;;;;;;;;5047731;28;20554;-66
2023/11/15 04:02:37;;;;;;;14.60;3.47;;;;;;;;;;5051713;28;20205;-66
2023/11/15 04:05:03;;;;;;;12.13;2.60;;;;;;;;;;5051367;28;20197;-66
2023/11/15 04:07:29;;;;;;;9.80;2.78;;;;;;;;;;5049340;28;20189;-66
2023/11/15 04:09:54;;;;;;;12.30;2.50;;;;;;;;;;5052710;28;20235;-67
2023/11/15 04:12:20;;;;;;;5.47;2.03;;;;;;;;;;5055385;28;20209;-66
2023/11/15 04:14:45;;;;;;;11.75;1.90;;;;;;;;;;5051885;28;20177;-67
2023/11/15 04:17:10;;;;;;;7.38;2.15;;;;;;;;;;5048180;28;20603;-66
2023/11/15 04:19:36;;;;;;;10.70;2.42;;;;;;;;;;5033787;28;20174;-67
2023/11/15 04:22:01;;;;;;;13.30;2.42;;;;;;;;;;5049614;28;20202;-66
2023/11/15 04:24:27;;;;;;;9.48;2.28;;;;;;;;;;5051252;28;20188;-66
2023/11/15 04:26:52;;;;;;;13.40;1.98;;;;;;;;;;5051509;28;20185;-66
2023/11/15 04:29:18;;;;;;;11.10;2.20;;;;;;;;;;5049695;28;20648;-66
2023/11/15 04:31:44;;;;;;;10.50;2.33;;;;;;;;;;5029694;28;20208;-67
2023/11/15 04:34:09;;;;;;;17.83;3.78;;;;;;;;;;5049021;28;20269;-66
2023/11/15 04:36:35;;;;;;;12.68;2.90;;;;;;;;;;5050023;28;20207;-66
2023/11/15 04:39:01;;;;;;;7.63;2.45;;;;;;;;;;5050846;28;20568;-66
2023/11/15 04:41:27;;;;;;;12.13;2.88;;;;;;;;;;5051011;28;20194;-66
2023/11/15 04:43:52;;;;;;;10.48;2.35;;;;;;;;;;5049526;28;20724;-66
2023/11/15 04:46:18;;;;;;;11.68;2.67;;;;;;;;;;5048948;28;20185;-65
2023/11/15 04:48:43;;;;;;;13.60;2.67;;;;;;;;;;5050800;28;20181;-65
2023/11/15 04:51:08;;;;;;;7.57;2.10;;;;;;;;;;5048848;28;20205;-68
2023/11/15 04:53:34;;;;;;;7.85;2.40;;;;;;;;;;5050790;28;20708;-66
2023/11/15 04:56:00;;;;;;;12.10;2.67;;;;;;;;;;5048948;28;20201;-66
2023/11/15 04:58:25;;;;;;;13.85;2.92;;;;;;;;;;5050279;28;20205;-67
2023/11/15 05:00:51;;;;;;;10.40;3.10;;;;;;;;;;5049069;28;20680;-66
2023/11/15 05:03:16;;;;;;;15.80;3.23;;;;;;;;;;5049843;28;20544;-66
2023/11/15 05:05:42;;;;;;;8.52;2.03;;;;;;;;;;5046529;28;20734;-67
2023/11/15 05:08:08;;;;;;;18.10;1.90;;;;;;;;;;5047641;28;20666;-65
2023/11/15 05:10:33;;;;;;;11.32;1.92;;;;;;;;;;5050089;28;20261;-66
2023/11/15 05:12:59;;;;;;;11.82;2.40;;;;;;;;;;5050493;28;20309;-66
2023/11/15 05:15:24;;;;;;;11.07;2.20;;;;;;;;;;5050900;28;20169;-67
2023/11/15 05:17:49;;;;;;;9.70;2.67;;;;;;;;;;5049327;28;20304;-67
2023/11/15 05:20:14;;;;;;;12.30;2.33;;;;;;;;;;5048616;28;20263;-66
2023/11/15 05:22:39;;;;;;;10.90;2.90;;;;;;;;;;5031498;28;20190;-67
2023/11/15 05:25:05;;;;;;;11.75;3.10;;;;;;;;;;5048708;28;20276;-66
2023/11/15 05:27:31;;;;;;;20.75;2.70;;;;;;;;;;5051900;28;20645;-66
2023/11/15 05:29:56;;;;;;;8.40;2.42;;;;;;;;;;5046750;28;20694;-66
2023/11/15 05:32:21;;;;;;;7.20;1.90;;;;;;;;;;5050872;28;20209;-66
2023/11/15 05:34:47;;;;;;;13.23;3.05;;;;;;;;;;5050369;28;20181;-67
2023/11/15 05:37:12;;;;;;;10.43;2.38;;;;;;;;;;5049641;28;20212;-66
2023/11/15 05:39:37;;;;;;;10.55;2.83;;;;;;;;;;5042601;28;20177;-66
2023/11/15 05:42:03;;;;;;;9.23;2.70;;;;;;;;;;5029208;28;20281;-66
2023/11/15 05:44:28;;;;;;;12.03;2.90;;;;;;;;;;5048471;28;20197;-66
2023/11/15 05:46:54;;;;;;;8.90;2.20;;;;;;;;;;5049345;28;20187;-66
2023/11/15 05:49:19;;;;;;;14.80;2.75;;;;;;;;;;5046764;28;20185;-67
2023/11/15 05:51:44;;;;;;;8.43;1.93;;;;;;;;;;5048652;28;20706;-66
2023/11/15 05:54:10;;;;;;;8.77;2.25;;;;;;;;;;5056314;28;20313;-66
2023/11/15 05:56:35;;;;;;;7.93;2.17;;;;;;;;;;5030884;28;20197;-65
2023/11/15 05:59:00;;;;;;;8.30;2.53;;;;;;;;;;5057557;28;20177;-68
2023/11/15 06:01:25;;;;;;;14.63;2.80;;;;;;;;;;5047678;28;20201;-66
2023/11/15 06:03:51;;;;;;;13.93;2.70;;;;;;;;;;5052458;28;20645;-65
2023/11/15 06:06:16;;;;;;;9.27;2.57;;;;;;;;;;5047435;28;20188;-65
2023/11/15 06:08:42;;;;;;;18.80;2.30;;;;;;;;;;5048873;28;20182;-65
2023/11/15 06:11:07;;;;;;;12.97;2.70;;;;;;;;;;5055978;28;20213;-66
2023/11/15 06:13:36;;;;;;;12.70;2.50;;;;;;;;;;5055435;28;20181;-65
2023/11/15 06:16:01;;;;;;;5.30;1.87;;;;;;;;;;5052549;28;20173;-66
2023/11/15 06:18:27;;;;;;;6.17;2.40;;;;;;;;;;5055535;28;20181;-66
2023/11/15 06:20:52;;;;;;;13.67;2.97;;;;;;;;;;5036169;28;20194;-65
2023/11/15 06:23:17;;;;;;;7.57;1.65;;;;;;;;;;5054298;28;20188;-66
2023/11/15 06:25:42;;;;;;;12.00;1.97;;;;;;;;;;5043665;28;20193;-65
2023/11/15 06:28:08;;;;;;;3.53;1.30;;;;;;;;;;5054119;28;20260;-66
2023/11/15 06:30:34;;;;;;;4.87;1.40;;;;;;;;;;5051510;28;20177;-66
2023/11/15 06:32:59;;;;;;;11.33;1.83;;;;;;;;;;5050787;28;20239;-68
2023/11/15 06:35:24;;;;;;;4.80;1.70;;;;;;;;;;5053826;28;20185;-67
2023/11/15 06:37:50;;;;;;;3.03;1.50;;;;;;;;;;5052020;28;20642;-65
2023/11/15 06:40:15;;;;;;;7.83;1.90;;;;;;;;;;5053818;28;20177;-65
2023/11/15 06:42:42;;;;;;;11.40;2.50;;;;;;;;;;5050402;28;20198;-65
2023/11/15 06:45:08;;;;;;;11.13;1.60;;;;;;;;;;5050550;28;20668;-66
2023/11/15 06:47:35;;;;;;;8.30;2.20;;;;;;;;;;5052085;28;20219;-65
2023/11/15 06:50:00;;;;;;;16.83;2.07;;;;;;;;;;5049724;28;20585;-66
2023/11/15 06:52:25;;;;;;;10.97;2.50;;;;;;;;;;5053348;28;20238;-66
2023/11/15 06:54:52;;;;;;;7.87;1.97;;;;;;;;;;5037990;28;20246;-66
2023/11/15 06:57:19;;;;;;;9.30;2.40;;;;;;;;;;5046366;28;20232;-67
2023/11/15 06:59:44;;;;;;;11.37;3.27;;;;;;;;;;5051471;28;20182;-65
2023/11/15 07:02:11;;;;;;;10.53;2.77;;;;;;;;;;5043713;28;20262;-66
2023/11/15 07:04:37;;;;;;;7.83;2.60;;;;;;;;;;5055237;28;20193;-66
2023/11/15 07:07:02;;;;;;;10.63;2.10;;;;;;;;;;5050540;28;20177;-67
2023/11/15 07:09:27;;;;;;;10.13;2.13;;;;;;;;;;5052204;28;20177;-66
2023/11/15 07:11:52;;;;;;;7.17;1.90;;;;;;;;;;5051935;28;20672;-66
2023/11/15 07:14:18;;;;;;;10.23;2.40;;;;;;;;;;5050528;28;20262;-67
2023/11/15 07:16:46;;;;;;;12.83;2.50;;;;;;;;;;5051285;28;20205;-66
2023/11/15 07:19:12;;;;;;;11.83;2.43;;;;;;;;;;5052521;28;20181;-66
2023/11/15 07:21:37;;;;;;;8.37;2.30;;;;;;;;;;5046854;28;20202;-66
2023/11/15 07:24:03;;;;;;;7.37;2.43;;;;;;;;;;5048139;28;20571;-66
2023/11/15 07:26:35;;;;;;;7.97;1.63;;;;;;;;;;5051774;28;20192;-66
2023/11/15 07:29:00;;;;;;;13.10;3.50;;;;;;;;;;5052567;28;20193;-66
2023/11/15 07:31:25;;;;;;;9.67;2.40;;;;;;;;;;5046238;28;20577;-66
2023/11/15 07:33:50;;;;;;;12.20;2.40;;;;;;;;;;5052265;28;20709;-66
2023/11/15 07:36:16;;;;;;;10.43;2.67;;;;;;;;;;5049211;28;20201;-65
2023/11/15 07:38:41;;;;;;;6.03;2.53;;;;;;;;;;5050498;28;20172;-66
2023/11/15 07:41:06;;;;;;;8.80;2.10;;;;;;;;;;5033046;28;20189;-66
2023/11/15 07:43:32;;;;;;;9.93;2.27;;;;;;;;;;5033046;28;20268;-67
2023/11/15 07:45:59;;;;;;;9.27;2.30;;;;;;;;;;5051659;28;20280;-66
2023/11/15 07:48:25;;;;;;;9.40;2.27;;;;;;;;;;5048553;28;20223;-67
2023/11/15 07:50:51;;;;;;;9.27;2.80;;;;;;;;;;5052085;28;20193;-67
2023/11/15 07:53:16;;;;;;;11.33;2.20;;;;;;;;;;5050084;28;20264;-65
2023/11/15 07:55:42;;;;;;;9.00;1.97;;;;;;;;;;5047267;28;20661;-65
2023/11/15 07:58:07;;;;;;;13.50;2.53;;;;;;;;;;5049426;28;20200;-65
2023/11/15 08:00:35;;;;;;;11.53;2.60;;;;;;;;;;5048512;28;20170;-66
2023/11/15 08:03:04;;;;;;;11.27;2.13;;;;;;;;;;5054432;28;20622;-66
2023/11/15 08:05:29;;;;;;;11.07;2.33;;;;;;;;;;5054635;28;20182;-66
2023/11/15 08:07:56;;;;;;;6.78;2.30;;;;;;;;;;5053270;28;20176;-65
2023/11/15 08:10:23;;;;;;;7.43;1.90;;;;;;;;;;5049506;28;20208;-66
2023/11/15 08:12:49;;;;;;;11.47;2.30;;;;;;;;;;5052016;28;20201;-67
2023/11/15 08:15:15;;;;;;;10.90;2.20;;;;;;;;;;5051211;28;20259;-66
2023/11/15 08:17:46;;;;;;;17.23;2.87;;;;;;;;;;5051008;28;20266;-66
2023/11/15 08:20:12;;;;;;;11.23;2.17;;;;;;;;;;5047433;28;20196;-67
2023/11/15 08:22:38;;;;;;;6.47;3.20;;;;;;;;;;5052376;28;20196;-66
2023/11/15 08:25:07;;;;;;;13.80;2.93;;;;;;;;;;5053834;28;20238;-65
2023/11/15 08:27:32;;;;;;;7.50;1.67;;;;;;;;;;5053193;28;20176;-66
2023/11/15 08:29:57;;;;;;;20.80;3.07;;;;;;;;;;5050958;28;20186;-66
2023/11/15 08:32:24;;;;;;;13.60;2.38;;;;;;;;;;5049782;28;20286;-66
2023/11/15 08:34:50;;;;;;;12.20;2.20;;;;;;;;;;5045369;28;20180;-66
2023/11/15 08:37:15;;;;;;;10.63;2.53;;;;;;;;;;5048271;28;20198;-67
2023/11/15 08:39:40;;;;;;;8.00;1.75;;;;;;;;;;5051863;28;20197;-66
2023/11/15 08:42:06;;;;;;;11.48;1.73;;;;;;;;;;5056109;28;20200;-66
2023/11/15 08:44:31;;;;;;;12.52;2.20;;;;;;;;;;5048870;28;20576;-67
2023/11/15 08:46:58;;;;;;;13.02;2.35;;;;;;;;;;5050109;28;20186;-65
2023/11/15 08:49:25;;;;;;;11.55;2.15;;;;;;;;;;5044634;28;20184;-66
2023/11/15 08:51:51;;;;;;;9.52;1.30;;;;;;;;;;5047846;28;20228;-65
2023/11/15 08:54:16;;;;;;;4.32;1.20;;;;;;;;;;5050864;28;20179;-66
2023/11/15 08:56:41;;;;;;;2.70;0.88;;;;;;;;;;5052834;28;20200;-67
2023/11/15 08:59:11;;;;;;;9.35;1.20;;;;;;;;;;5051664;28;20221;-66
2023/11/15 09:01:38;;;;;;;7.30;1.77;;;;;;;;;;5049786;28;20205;-67
2023/11/15 09:04:04;;;;;;;8.10;1.83;;;;;;;;;;5048614;28;20657;-67
2023/11/15 09:06:29;;;;;;;8.18;2.88;;;;;;;;;;5051543;28;20190;-66
2023/11/15 09:08:54;;;;;;;9.32;2.42;;;;;;;;;;5043439;28;20177;-67
2023/11/15 09:11:19;;;;;;;12.00;2.42;;;;;;;;;;5028949;28;20548;-66
2023/11/15 09:13:46;;;;;;;13.90;2.03;;;;;;;;;;5050278;28;20184;-66
2023/11/15 09:16:12;;;;;;;12.82;2.13;;;;;;;;;;5050536;28;20210;-66
2023/11/15 09:18:38;;;;;;;10.13;2.67;;;;;;;;;;5049130;28;20170;-65
2023/11/15 09:21:04;;;;;;;13.68;2.33;;;;;;;;;;5034624;28;20253;-66
2023/11/15 09:23:29;;;;;;;9.40;2.65;;;;;;;;;;5044730;28;20678;-65
2023/11/15 09:25:58;;;;;;;7.68;1.80;;;;;;;;;;5044028;28;20188;-66
2023/11/15 09:28:23;;;;;;;10.05;2.38;;;;;;;;;;5045427;28;20693;-67
2023/11/15 09:30:51;;;;;;;12.45;2.47;;;;;;;;;;5048286;28;20228;-66
2023/11/15 09:33:17;;;;;;;6.28;2.20;;;;;;;;;;5041509;28;20170;-65
2023/11/15 09:35:42;;;;;;;7.82;1.90;;;;;;;;;;5030462;28;20181;-67
2023/11/15 09:38:11;;;;;;;11.25;1.85;;;;;;;;;;5046305;28;20690;-66
2023/11/15 09:40:36;;;;;;;6.93;2.25;;;;;;;;;;5047213;28;20264;-65
2023/11/15 09:43:02;;;;;;;7.05;1.67;;;;;;;;;;5050874;28;20713;-66
2023/11/15 09:45:29;;;;;;;10.27;1.92;;;;;;;;;;5047421;28;20242;-66
2023/11/15 09:47:54;;;;;;;12.27;2.17;;;;;;;;;;5045928;28;20182;-66
2023/11/15 09:50:24;;;;;;;10.35;1.90;;;;;;;;;;5048099;28;20236;-66
2023/11/15 09:52:54;;;;;;;10.70;2.22;;;;;;;;;;5045385;28;20565;-66
2023/11/15 09:55:21;;;;;;;17.55;2.30;;;;;;;;;;5038325;28;20675;-66
2023/11/15 09:57:47;;;;;;;6.00;1.98;;;;;;;;;;5048725;28;20205;-66
2023/11/15 10:00:15;;;;;;;9.98;2.33;;;;;;;;;;5047135;28;20667;-66
2023/11/15 10:02:41;;;;;;;5.95;1.85;;;;;;;;;;5043925;28;20209;-65
2023/11/15 10:05:14;;;;;;;9.98;2.45;;;;;;;;;;5041816;28;20173;-66
2023/11/15 10:07:42;;;;;;;7.68;2.05;;;;;;;;;;5048305;28;20185;-66
2023/11/15 10:10:28;;;;;;;8.45;2.10;;;;;;;;;;5048435;28;20180;-66
2023/11/15 10:12:54;;;;;;;5.20;1.80;;;;;;;;;;5035213;28;20294;-66
2023/11/15 10:15:36;;;;;;;13.73;2.22;;;;;;;;;;5042606;28;20169;-66
2023/11/15 10:18:03;;;;;;;9.95;2.28;;;;;;;;;;5033826;28;20643;-67
2023/11/15 10:20:28;;;;;;;22.02;3.65;;;;;;;;;;5040727;28;20653;-66
2023/11/15 10:22:55;;;;;;;9.85;2.05;;;;;;;;;;5042191;28;20193;-66
2023/11/15 10:25:20;;;;;;;11.20;3.10;;;;;;;;;;5044416;28;20544;-67
2023/11/15 10:27:46;;;;;;;8.82;1.90;;;;;;;;;;5044003;28;20178;-66
2023/11/15 10:30:16;;;;;;;13.35;2.35;;;;;;;;;;5048808;28;20591;-64
2023/11/15 10:32:47;;;;;;;9.00;2.42;;;;;;;;;;5051222;28;20193;-67
2023/11/15 10:35:27;;;;;;;10.38;1.98;;;;;;;;;;5046387;28;20642;-65
2023/11/15 10:37:53;;;;;;;10.77;1.52;;;;;;;;;;5029455;28;20614;-65
2023/11/15 10:40:21;;;;;;;6.95;1.58;;;;;;;;;;5049885;28;20664;-67
2023/11/15 10:42:48;;;;;;;8.25;1.90;;;;;;;;;;5043892;28;20288;-67
2023/11/15 10:45:15;;;;;;;8.00;1.77;;;;;;;;;;5043946;28;20181;-64
2023/11/15 10:47:47;;;;;;;4.90;1.42;;;;;;;;;;5052577;28;20208;-65
2023/11/15 10:50:15;;;;;;;11.02;2.05;;;;;;;;;;5042133;28;20177;-65
2023/11/15 10:52:42;;;;;;;9.35;1.67;;;;;;;;;;5051369;28;20252;-64
2023/11/15 10:55:08;;;;;;;10.15;1.90;;;;;;;;;;5048092;28;20208;-65
2023/11/15 10:57:36;;;;;;;6.38;1.73;;;;;;;;;;5046331;28;20201;-65
2023/11/15 11:00:05;;;;;;;6.55;1.77;;;;;;;;;;5041895;28;20182;-64
2023/11/15 11:02:32;;;;;;;9.88;2.53;;;;;;;;;;5045326;28;20275;-65
2023/11/15 11:04:59;;;;;;;7.35;1.88;;;;;;;;;;5049852;28;20229;-66
2023/11/15 11:07:31;;;;;;;8.57;1.77;;;;;;;;;;5051388;28;20667;-65
2023/11/15 11:10:08;;;;;;;7.18;1.55;;;;;;;;;;5047527;28;20268;-66
2023/11/15 11:12:36;;;;;;;7.43;2.05;;;;;;;;;;5044368;28;20205;-65
2023/11/15 11:15:17;;;;;;;11.23;1.65;;;;;;;;;;5048709;28;20587;-65
2023/11/15 11:17:45;;;;;;;8.77;2.65;;;;;;;;;;5046362;28;20231;-66
2023/11/15 11:20:26;;;;;;;7.13;1.77;;;;;;;;;;5054288;28;20185;-65
2023/11/15 11:23:07;;;;;;;9.50;1.88;;;;;;;;;;5050337;28;20205;-65
2023/11/15 11:25:34;;;;;;;8.68;1.50;;;;;;;;;;5052781;28;20270;-66
2023/11/15 11:28:01;;;;;;;5.20;2.38;;;;;;;;;;5049505;28;20185;-66
2023/11/15 11:30:27;;;;;;;11.00;1.75;;;;;;;;;;5052353;28;20201;-66
2023/11/15 11:33:10;;;;;;;5.68;1.45;;;;;;;;;;5053989;28;20192;-66
2023/11/15 11:35:36;;;;;;;10.57;1.67;;;;;;;;;;5050805;28;20249;-66
2023/11/15 11:38:03;;;;;;;10.88;1.63;;;;;;;;;;5048883;28;20209;-66
2023/11/15 11:40:31;;;;;;;6.90;1.42;;;;;;;;;;5052672;28;20558;-67
2023/11/15 11:43:11;;;;;;;7.72;1.95;;;;;;;;;;5050237;28;20748;-66
2023/11/15 11:45:37;;;;;;;6.70;2.03;;;;;;;;;;5055168;28;20265;-66
2023/11/15 11:48:02;;;;;;;10.52;2.10;;;;;;;;;;5050358;28;20304;-67
2023/11/15 11:50:27;;;;;;;10.85;1.77;;;;;;;;;;5051708;28;20186;-65
2023/11/15 11:52:53;;;;;;;11.10;1.60;;;;;;;;;;5047187;28;20308;-66
2023/11/15 11:55:18;;;;;;;8.38;1.60;;;;;;;;;;5052767;28;20194;-67
2023/11/15 11:57:43;;;;;;;9.05;1.85;;;;;;;;;;5048562;28;20351;-66
2023/11/15 12:00:16;;;;;;;8.23;2.65;;;;;;;;;;5041770;28;20669;-67
2023/11/15 12:02:48;;;;;;;5.65;1.63;;;;;;;;;;5047881;28;20684;-67
2023/11/15 12:05:15;;;;;;;12.88;1.58;;;;;;;;;;5033411;28;20600;-67
2023/11/15 12:07:41;;;;;;;4.18;1.55;;;;;;;;;;5054124;28;20205;-67
2023/11/15 12:10:06;;;;;;;7.97;1.38;;;;;;;;;;5050867;28;20224;-67
2023/11/15 12:12:32;;;;;;;5.88;1.50;;;;;;;;;;5052080;28;20251;-67
2023/11/15 12:15:00;;;;;;;5.03;2.03;;;;;;;;;;5049480;28;20193;-66
2023/11/15 12:17:39;;;;;;;8.68;1.73;;;;;;;;;;5050179;28;20201;-68
2023/11/15 12:20:05;;;;;;;13.65;1.50;;;;;;;;;;5043212;28;20182;-67
2023/11/15 12:22:30;;;;;;;8.98;1.85;;;;;;;;;;5048797;28;20270;-67
2023/11/15 12:24:57;;;;;;;5.20;1.70;;;;;;;;;;5051741;28;20587;-66
2023/11/15 12:27:22;;;;;;;9.63;1.80;;;;;;;;;;5032309;28;20180;-67
2023/11/15 12:29:50;;;;;;;7.72;2.25;;;;;;;;;;5051642;28;20193;-67
2023/11/15 12:32:16;;;;;;;9.82;1.80;;;;;;;;;;5041290;28;20205;-67
2023/11/15 12:34:43;;;;;;;16.23;2.47;;;;;;;;;;5050656;28;20533;-67
2023/11/15 12:37:08;;;;;;;3.17;1.25;;;;;;;;;;5049327;28;20210;-65
2023/11/15 12:39:37;;;;;;;10.18;1.60;;;;;;;;;;5051043;28;20185;-67
2023/11/15 12:42:04;;;;;;;7.38;1.52;;;;;;;;;;5053469;28;20205;-67
2023/11/15 12:44:40;;;;;;;5.20;1.55;;;;;;;;;;5053886;28;20186;-67
2023/11/15 12:47:07;;;;;;;7.50;1.50;;;;;;;;;;5052200;28;20212;-67
2023/11/15 12:49:34;;;;;;;6.22;1.65;;;;;;;;;;5052308;28;20177;-68
2023/11/15 12:52:00;;;;;;;5.38;1.40;;;;;;;;;;5048457;28;20580;-67
2023/11/15 12:54:25;;;;;;;4.53;1.85;;;;;;;;;;5050196;28;20268;-66
2023/11/15 12:57:03;;;;;;;11.02;1.70;;;;;;;;;;5046754;28;20201;-65
2023/11/15 12:59:32;;;;;;;5.60;1.40;;;;;;;;;;5046600;28;20658;-65
2023/11/15 13:01:57;;;;;;;7.35;1.95;;;;;;;;;;5047109;28;20244;-64
2023/11/15 13:04:22;;;;;;;7.78;1.58;;;;;;;;;;5048908;28;20270;-66
2023/11/15 13:06:49;;;;;;;7.90;1.42;;;;;;;;;;5045625;28;20677;-66
2023/11/15 13:09:14;;;;;;;4.65;1.23;;;;;;;;;;5050326;28;20708;-65
2023/11/15 13:11:42;;;;;;;6.60;1.60;;;;;;;;;;5044876;28;20332;-65
2023/11/15 13:14:08;;;;;;;5.72;2.10;;;;;;;;;;5022268;28;20190;-66
2023/11/15 13:16:33;;;;;;;8.48;2.88;;;;;;;;;;5046908;28;20212;-66
2023/11/15 13:18:58;;;;;;;6.00;1.48;;;;;;;;;;5046616;28;20186;-65
2023/11/15 13:21:25;;;;;;;5.70;1.77;;;;;;;;;;5047389;28;20205;-66
2023/11/15 13:23:53;;;;;;;6.32;2.45;;;;;;;;;;5046171;28;20694;-66
2023/11/15 13:26:19;;;;;;;7.85;3.03;;;;;;;;;;5049260;28;20176;-66
2023/11/15 13:28:47;;;;;;;3.35;1.13;;;;;;;;;;5046566;28;20217;-65
2023/11/15 13:31:13;;;;;;;6.93;1.55;;;;;;;;;;5045200;28;20284;-67
2023/11/15 13:33:39;;;;;;;8.65;2.08;;;;;;;;;;5047367;28;20776;-66
2023/11/15 13:36:05;;;;;;;9.38;1.90;;;;;;;;;;5048131;28;20173;-66
2023/11/15 13:38:32;;;;;;;4.78;1.48;;;;;;;;;;5050748;28;20351;-65
2023/11/15 13:40:58;;;;;;;7.97;1.73;;;;;;;;;;5049378;28;20915;-66
2023/11/15 13:43:23;;;;;;;10.90;3.47;;;;;;;;;;5049630;28;20170;-66
2023/11/15 13:45:48;;;;;;;16.70;4.57;;;;;;;;;;5050702;28;20182;-66
2023/11/15 13:48:14;;;;;;;9.25;2.42;;;;;;;;;;5047984;28;20177;-66
2023/11/15 13:50:39;;;;;;;8.07;2.50;;;;;;;;;;5052390;28;20209;-66
2023/11/15 13:53:05;;;;;;;26.95;2.58;;;;;;;;;;5046374;28;20174;-66
2023/11/15 13:55:30;;;;;;;5.97;1.52;;;;;;;;;;5050037;28;20178;-65
2023/11/15 13:57:55;;;;;;;10.98;2.15;;;;;;;;;;5050120;28;20243;-66
2023/11/15 14:00:23;;;;;;;9.93;2.65;;;;;;;;;;5050214;28;20176;-66
2023/11/15 14:02:49;;;;;;;7.93;2.08;;;;;;;;;;5029195;28;20221;-67
2023/11/15 14:05:17;;;;;;;7.50;2.20;;;;;;;;;;5030444;28;20181;-67
2023/11/15 14:07:43;;;;;;;4.65;1.15;;;;;;;;;;5049463;28;20352;-68
2023/11/15 14:10:08;;;;;;;8.75;1.70;;;;;;;;;;5046820;28;20235;-67
2023/11/15 14:12:33;;;;;;;8.23;2.08;;;;;;;;;;5048763;28;20197;-67
2023/11/15 14:14:59;;;;;;;6.38;1.52;;;;;;;;;;5048163;28;20531;-67
2023/11/15 14:17:24;;;;;;;9.13;1.73;;;;;;;;;;5042323;28;20298;-67
2023/11/15 14:19:49;;;;;;;9.32;1.73;;;;;;;;;;5035327;28;20567;-67
2023/11/15 14:22:15;;;;;;;9.40;1.67;;;;;;;;;;5045214;28;20670;-67
2023/11/15 14:24:40;;;;;;;10.63;2.03;;;;;;;;;;5045180;28;20196;-67
2023/11/15 14:27:05;;;;;;;13.65;2.00;;;;;;;;;;5043967;28;20181;-68
2023/11/15 14:29:30;;;;;;;12.88;2.50;;;;;;;;;;5051049;28;20223;-68
2023/11/15 14:31:56;;;;;;;11.38;1.83;;;;;;;;;;5051053;28;20235;-68